Arcola, Canada
Current Conditions -  °F | °C
As of 8:00 AM on Friday 31 Oct 2014 (Local Time) from CYEN Reporting Station
Overcast Overcast  
Wind Chill:   Ceiling: 25000
Heat Index: 19°   Visibility: 15mi
Dew Point: 18°   Wind: 15mph
Humidity: 93%   Direction: 110°ESE
Pressure: 30.3"   Gusts: NA
Location:  49.63°N, 102.48°W
Report Text: CYEN 311400Z 11013KT 15SM FEW140 OVC250 M07/M08 A3030 RMKAC1CI2 CONTRAILS SLP300
Loading
Personal Weather Stations






























Interactive Weather Map
Tropical Storm Tracking
New forecast layout! Learn more

10-Day Weather Forecast

Advertisements
Track Severe Weather on mobile